aviador You're here:

KCDW Decoded Metar

CALDWELL in NJ, USA
Report Time2017-12-16 17:53:00
UTC Time2017-12-16 18:53:45
Flight Rules vfr VFR
WindVRB at 06 kt
Visibility9999 m
Phenomena:N/A
Clouds:Broken 046 Hf
Broken 050 Hf
Expected CloudBase > 3,200 ft AGL from Temp-Dew spread
Ceiling4,600 ft
Temp01°C (ISA -14)
Dew Point-7°C (56% RH)
AAT-3.9°C
QNH1016 hPa
Density Alt-1,496 ft
Elevation210 ft
Report Wrong Elevation
Raw Report
METAR KCDW 161753Z VRB06KT 10SM BKN046 BKN050 01/M07 A3000 RMK AO2
SLP164 T00061072 10006 21067 56026=

Extra information for KCDW:More info

Metar Taf Metar & Taf Last 4 Metars F.Rules Stats Wind Profile Meteogram Temp Stats Airport Information Weather charts Add Link Nearby VenuesMetar ALERT Operation Metar Decoded Social comments

AIRNAV info for KCDW